sensor_id;sensor_type;location;lat;lon;timestamp;pressure;altitude;pressure_sealevel;temperature;humidity
72612;BME280;60655;52.182;4.474;2024-01-30T00:00:58;102410.34;;;9.31;100.00
72612;BME280;60655;52.182;4.474;2024-01-30T00:02:59;102407.03;;;9.37;100.00
72612;BME280;60655;52.182;4.474;2024-01-30T00:05:00;102410.69;;;9.36;100.00
72612;BME280;60655;52.182;4.474;2024-01-30T00:07:01;102415.47;;;9.40;100.00
72612;BME280;60655;52.182;4.474;2024-01-30T00:09:01;102409.34;;;9.40;100.00
72612;BME280;60655;52.182;4.474;2024-01-30T00:11:02;102412.84;;;9.40;100.00
72612;BME280;60655;52.182;4.474;2024-01-30T00:13:03;102429.25;;;9.44;100.00
72612;BME280;60655;52.182;4.474;2024-01-30T00:15:04;102425.25;;;9.48;100.00
72612;BME280;60655;52.182;4.474;2024-01-30T00:17:05;102411.50;;;9.44;100.00
72612;BME280;60655;52.182;4.474;2024-01-30T00:19:06;102406.69;;;9.40;100.00
72612;BME280;60655;52.182;4.474;2024-01-30T00:21:08;102413.16;;;9.45;100.00
72612;BME280;60655;52.182;4.474;2024-01-30T00:23:09;102412.66;;;9.42;100.00
72612;BME280;60655;52.182;4.474;2024-01-30T00:25:10;102404.53;;;9.43;100.00
72612;BME280;60655;52.182;4.474;2024-01-30T00:27:11;102400.41;;;9.41;100.00
72612;BME280;60655;52.182;4.474;2024-01-30T00:29:12;102401.88;;;9.43;100.00
72612;BME280;60655;52.182;4.474;2024-01-30T00:31:19;102397.25;;;9.45;100.00
72612;BME280;60655;52.182;4.474;2024-01-30T00:33:20;102401.22;;;9.50;100.00
72612;BME280;60655;52.182;4.474;2024-01-30T00:35:22;102398.56;;;9.50;100.00
72612;BME280;60655;52.182;4.474;2024-01-30T00:37:23;102407.47;;;9.57;100.00
72612;BME280;60655;52.182;4.474;2024-01-30T00:39:24;102409.63;;;9.53;100.00
72612;BME280;60655;52.182;4.474;2024-01-30T00:41:24;102410.47;;;9.54;100.00
72612;BME280;60655;52.182;4.474;2024-01-30T00:43:25;102416.09;;;9.59;100.00
72612;BME280;60655;52.182;4.474;2024-01-30T00:45:26;102405.16;;;9.54;100.00
72612;BME280;60655;52.182;4.474;2024-01-30T00:47:27;102404.97;;;9.55;100.00
72612;BME280;60655;52.182;4.474;2024-01-30T00:49:29;102397.19;;;9.54;100.00
72612;BME280;60655;52.182;4.474;2024-01-30T00:51:30;102399.84;;;9.54;100.00
72612;BME280;60655;52.182;4.474;2024-01-30T00:53:31;102420.06;;;9.55;100.00
72612;BME280;60655;52.182;4.474;2024-01-30T00:55:32;102417.09;;;9.58;100.00
72612;BME280;60655;52.182;4.474;2024-01-30T00:57:33;102409.47;;;9.55;100.00
72612;BME280;60655;52.182;4.474;2024-01-30T00:59:33;102423.38;;;9.57;100.00
72612;BME280;60655;52.182;4.474;2024-01-30T01:01:35;102416.25;;;9.57;100.00
72612;BME280;60655;52.182;4.474;2024-01-30T01:03:35;102414.59;;;9.56;100.00
72612;BME280;60655;52.182;4.474;2024-01-30T01:05:36;102413.78;;;9.56;100.00
72612;BME280;60655;52.182;4.474;2024-01-30T01:07:37;102408.47;;;9.56;100.00
72612;BME280;60655;52.182;4.474;2024-01-30T01:09:38;102401.66;;;9.53;100.00
72612;BME280;60655;52.182;4.474;2024-01-30T01:11:39;102402.47;;;9.62;100.00
72612;BME280;60655;52.182;4.474;2024-01-30T01:13:39;102405.97;;;9.62;100.00
72612;BME280;60655;52.182;4.474;2024-01-30T01:15:40;102396.50;;;9.60;100.00
72612;BME280;60655;52.182;4.474;2024-01-30T01:17:41;102398.81;;;9.63;100.00
72612;BME280;60655;52.182;4.474;2024-01-30T01:19:42;102390.88;;;9.55;100.00
72612;BME280;60655;52.182;4.474;2024-01-30T01:21:43;102390.44;;;9.51;100.00
72612;BME280;60655;52.182;4.474;2024-01-30T01:23:44;102382.94;;;9.55;100.00
72612;BME280;60655;52.182;4.474;2024-01-30T01:25:45;102389.22;;;9.54;100.00
72612;BME280;60655;52.182;4.474;2024-01-30T01:27:45;102378.63;;;9.54;100.00
72612;BME280;60655;52.182;4.474;2024-01-30T01:29:52;102371.69;;;9.53;100.00
72612;BME280;60655;52.182;4.474;2024-01-30T01:31:54;102368.66;;;9.56;100.00
72612;BME280;60655;52.182;4.474;2024-01-30T01:33:55;102361.50;;;9.64;100.00
72612;BME280;60655;52.182;4.474;2024-01-30T01:35:56;102362.16;;;9.66;100.00
72612;BME280;60655;52.182;4.474;2024-01-30T01:37:56;102356.22;;;9.64;100.00
72612;BME280;60655;52.182;4.474;2024-01-30T01:39:59;102349.06;;;9.65;100.00
72612;BME280;60655;52.182;4.474;2024-01-30T01:42:00;102359.50;;;9.66;100.00
72612;BME280;60655;52.182;4.474;2024-01-30T01:44:01;102365.13;;;9.71;100.00
72612;BME280;60655;52.182;4.474;2024-01-30T01:46:02;102365.28;;;9.78;100.00
72612;BME280;60655;52.182;4.474;2024-01-30T01:48:03;102375.91;;;9.78;100.00
72612;BME280;60655;52.182;4.474;2024-01-30T01:50:04;102371.63;;;9.69;100.00
72612;BME280;60655;52.182;4.474;2024-01-30T01:52:06;102380.41;;;9.69;100.00
72612;BME280;60655;52.182;4.474;2024-01-30T01:54:07;102383.41;;;9.66;100.00
72612;BME280;60655;52.182;4.474;2024-01-30T01:56:09;102360.16;;;9.68;100.00
72612;BME280;60655;52.182;4.474;2024-01-30T01:58:10;102373.59;;;9.67;100.00
72612;BME280;60655;52.182;4.474;2024-01-30T02:00:13;102362.00;;;9.68;100.00
72612;BME280;60655;52.182;4.474;2024-01-30T02:02:17;102367.00;;;9.63;100.00
72612;BME280;60655;52.182;4.474;2024-01-30T02:04:18;102374.94;;;9.63;100.00
72612;BME280;60655;52.182;4.474;2024-01-30T02:06:19;102387.19;;;9.72;100.00
72612;BME280;60655;52.182;4.474;2024-01-30T02:08:20;102382.56;;;9.66;100.00
72612;BME280;60655;52.182;4.474;2024-01-30T02:10:21;102385.41;;;9.64;100.00
72612;BME280;60655;52.182;4.474;2024-01-30T02:12:22;102378.44;;;9.63;100.00
72612;BME280;60655;52.182;4.474;2024-01-30T02:14:23;102357.53;;;9.68;100.00
72612;BME280;60655;52.182;4.474;2024-01-30T02:16:24;102342.13;;;9.64;100.00
72612;BME280;60655;52.182;4.474;2024-01-30T02:18:25;102362.66;;;9.70;100.00
72612;BME280;60655;52.182;4.474;2024-01-30T02:20:28;102368.97;;;9.69;100.00
72612;BME280;60655;52.182;4.474;2024-01-30T02:22:32;102363.66;;;9.69;100.00
72612;BME280;60655;52.182;4.474;2024-01-30T02:24:34;102355.03;;;9.67;100.00
72612;BME280;60655;52.182;4.474;2024-01-30T02:26:35;102361.34;;;9.66;100.00
72612;BME280;60655;52.182;4.474;2024-01-30T02:28:36;102363.63;;;9.77;100.00
72612;BME280;60655;52.182;4.474;2024-01-30T02:30:37;102367.63;;;9.73;100.00
72612;BME280;60655;52.182;4.474;2024-01-30T02:32:38;102362.31;;;9.73;100.00
72612;BME280;60655;52.182;4.474;2024-01-30T02:34:38;102359.63;;;9.81;100.00
72612;BME280;60655;52.182;4.474;2024-01-30T02:36:42;102357.00;;;9.73;100.00
72612;BME280;60655;52.182;4.474;2024-01-30T02:38:44;102352.53;;;9.73;100.00
72612;BME280;60655;52.182;4.474;2024-01-30T02:40:47;102355.56;;;9.62;100.00
72612;BME280;60655;52.182;4.474;2024-01-30T02:42:47;102357.84;;;9.65;100.00
72612;BME280;60655;52.182;4.474;2024-01-30T02:44:48;102345.41;;;9.66;100.00
72612;BME280;60655;52.182;4.474;2024-01-30T02:46:49;102341.56;;;9.76;100.00
72612;BME280;60655;52.182;4.474;2024-01-30T02:48:50;102331.16;;;9.67;100.00
72612;BME280;60655;52.182;4.474;2024-01-30T02:50:51;102324.50;;;9.71;100.00
72612;BME280;60655;52.182;4.474;2024-01-30T02:52:51;102332.63;;;9.69;100.00
72612;BME280;60655;52.182;4.474;2024-01-30T02:54:52;102335.13;;;9.71;100.00
72612;BME280;60655;52.182;4.474;2024-01-30T02:56:53;102333.97;;;9.65;100.00
72612;BME280;60655;52.182;4.474;2024-01-30T02:58:54;102324.16;;;9.74;100.00
72612;BME280;60655;52.182;4.474;2024-01-30T03:00:55;102331.47;;;9.72;100.00
72612;BME280;60655;52.182;4.474;2024-01-30T03:02:55;102328.81;;;9.72;100.00
72612;BME280;60655;52.182;4.474;2024-01-30T03:04:56;102324.19;;;9.66;100.00
72612;BME280;60655;52.182;4.474;2024-01-30T03:06:57;102316.88;;;9.68;100.00
72612;BME280;60655;52.182;4.474;2024-01-30T03:08:58;102314.75;;;9.63;100.00
72612;BME280;60655;52.182;4.474;2024-01-30T03:10:59;102317.41;;;9.63;100.00
72612;BME280;60655;52.182;4.474;2024-01-30T03:13:00;102315.41;;;9.65;100.00
72612;BME280;60655;52.182;4.474;2024-01-30T03:15:01;102321.22;;;9.61;100.00
72612;BME280;60655;52.182;4.474;2024-01-30T03:17:01;102322.16;;;9.76;100.00
72612;BME280;60655;52.182;4.474;2024-01-30T03:19:04;102329.28;;;9.75;100.00
72612;BME280;60655;52.182;4.474;2024-01-30T03:21:05;102326.50;;;9.69;100.00
72612;BME280;60655;52.182;4.474;2024-01-30T03:23:06;102334.13;;;9.72;100.00
72612;BME280;60655;52.182;4.474;2024-01-30T03:25:07;102330.97;;;9.68;100.00
72612;BME280;60655;52.182;4.474;2024-01-30T03:27:08;102329.66;;;9.72;100.00
72612;BME280;60655;52.182;4.474;2024-01-30T03:29:09;102323.53;;;9.64;100.00
72612;BME280;60655;52.182;4.474;2024-01-30T03:31:14;102330.81;;;9.70;100.00
72612;BME280;60655;52.182;4.474;2024-01-30T03:33:15;102318.72;;;9.67;100.00
72612;BME280;60655;52.182;4.474;2024-01-30T03:35:16;102322.69;;;9.71;100.00
72612;BME280;60655;52.182;4.474;2024-01-30T03:37:17;102323.19;;;9.67;100.00
72612;BME280;60655;52.182;4.474;2024-01-30T03:39:17;102321.38;;;9.67;100.00
72612;BME280;60655;52.182;4.474;2024-01-30T03:41:18;102320.53;;;9.67;100.00
72612;BME280;60655;52.182;4.474;2024-01-30T03:43:19;102314.22;;;9.68;100.00
72612;BME280;60655;52.182;4.474;2024-01-30T03:45:20;102308.94;;;9.68;100.00
72612;BME280;60655;52.182;4.474;2024-01-30T03:47:21;102311.41;;;9.69;100.00
72612;BME280;60655;52.182;4.474;2024-01-30T03:49:22;102301.50;;;9.63;100.00
72612;BME280;60655;52.182;4.474;2024-01-30T03:51:23;102301.66;;;9.62;100.00
72612;BME280;60655;52.182;4.474;2024-01-30T03:53:24;102301.66;;;9.62;100.00
72612;BME280;60655;52.182;4.474;2024-01-30T03:55:24;102313.94;;;9.63;100.00
72612;BME280;60655;52.182;4.474;2024-01-30T03:57:25;102303.78;;;9.66;100.00
72612;BME280;60655;52.182;4.474;2024-01-30T03:59:26;102309.25;;;9.73;100.00
72612;BME280;60655;52.182;4.474;2024-01-30T04:01:27;102301.97;;;9.67;100.00
72612;BME280;60655;52.182;4.474;2024-01-30T04:03:28;102309.94;;;9.67;100.00
72612;BME280;60655;52.182;4.474;2024-01-30T04:05:29;102307.28;;;9.67;100.00
72612;BME280;60655;52.182;4.474;2024-01-30T04:07:30;102303.97;;;9.65;100.00
72612;BME280;60655;52.182;4.474;2024-01-30T04:09:31;102309.09;;;9.66;100.00
72612;BME280;60655;52.182;4.474;2024-01-30T04:11:33;102314.06;;;9.69;100.00
72612;BME280;60655;52.182;4.474;2024-01-30T04:13:34;102311.94;;;9.65;100.00
72612;BME280;60655;52.182;4.474;2024-01-30T04:15:35;102310.75;;;9.67;100.00
72612;BME280;60655;52.182;4.474;2024-01-30T04:17:35;102313.59;;;9.66;100.00
72612;BME280;60655;52.182;4.474;2024-01-30T04:19:40;102304.94;;;9.72;100.00
72612;BME280;60655;52.182;4.474;2024-01-30T04:21:41;102298.94;;;9.78;100.00
72612;BME280;60655;52.182;4.474;2024-01-30T04:23:42;102298.63;;;9.73;100.00
72612;BME280;60655;52.182;4.474;2024-01-30T04:25:43;102296.50;;;9.68;100.00
72612;BME280;60655;52.182;4.474;2024-01-30T04:27:44;102296.19;;;9.63;100.00
72612;BME280;60655;52.182;4.474;2024-01-30T04:29:44;102293.31;;;9.73;100.00
72612;BME280;60655;52.182;4.474;2024-01-30T04:31:45;102293.97;;;9.75;100.00
72612;BME280;60655;52.182;4.474;2024-01-30T04:33:46;102288.84;;;9.73;100.00
72612;BME280;60655;52.182;4.474;2024-01-30T04:35:47;102287.31;;;9.79;100.00
72612;BME280;60655;52.182;4.474;2024-01-30T04:37:48;102287.31;;;9.79;100.00
72612;BME280;60655;52.182;4.474;2024-01-30T04:39:49;102284.66;;;9.79;100.00
72612;BME280;60655;52.182;4.474;2024-01-30T04:41:50;102284.59;;;9.87;100.00
72612;BME280;60655;52.182;4.474;2024-01-30T04:43:51;102288.91;;;9.88;100.00
72612;BME280;60655;52.182;4.474;2024-01-30T04:45:52;102282.28;;;9.84;100.00
72612;BME280;60655;52.182;4.474;2024-01-30T04:47:53;102280.09;;;9.88;100.00
72612;BME280;60655;52.182;4.474;2024-01-30T04:49:53;102270.31;;;9.88;100.00
72612;BME280;60655;52.182;4.474;2024-01-30T04:51:54;102273.63;;;9.90;100.00
72612;BME280;60655;52.182;4.474;2024-01-30T04:53:56;102274.16;;;9.86;100.00
72612;BME280;60655;52.182;4.474;2024-01-30T04:55:57;102273.63;;;9.90;100.00
72612;BME280;60655;52.182;4.474;2024-01-30T04:57:58;102277.53;;;10.02;100.00
72612;BME280;60655;52.182;4.474;2024-01-30T04:59:59;102271.41;;;10.02;100.00
72612;BME280;60655;52.182;4.474;2024-01-30T05:02:00;102276.72;;;10.02;100.00
72612;BME280;60655;52.182;4.474;2024-01-30T05:04:01;102278.88;;;9.98;100.00
72612;BME280;60655;52.182;4.474;2024-01-30T05:06:03;102279.00;;;10.05;100.00
72612;BME280;60655;52.182;4.474;2024-01-30T05:08:04;102282.97;;;10.09;100.00
72612;BME280;60655;52.182;4.474;2024-01-30T05:10:05;102293.41;;;10.10;100.00
72612;BME280;60655;52.182;4.474;2024-01-30T05:12:07;102293.22;;;10.12;100.00
72612;BME280;60655;52.182;4.474;2024-01-30T05:14:08;102287.91;;;10.12;100.00
72612;BME280;60655;52.182;4.474;2024-01-30T05:16:09;102296.06;;;10.10;100.00
72612;BME280;60655;52.182;4.474;2024-01-30T05:18:10;102283.25;;;10.14;100.00
72612;BME280;60655;52.182;4.474;2024-01-30T05:20:11;102280.06;;;10.19;100.00
72612;BME280;60655;52.182;4.474;2024-01-30T05:22:12;102279.94;;;10.12;100.00
72612;BME280;60655;52.182;4.474;2024-01-30T05:24:16;102290.19;;;10.15;100.00
72612;BME280;60655;52.182;4.474;2024-01-30T05:26:17;102284.25;;;10.13;100.00
72612;BME280;60655;52.182;4.474;2024-01-30T05:28:18;102278.72;;;10.23;100.00
72612;BME280;60655;52.182;4.474;2024-01-30T05:30:19;102287.00;;;10.28;100.00
72612;BME280;60655;52.182;4.474;2024-01-30T05:32:20;102293.78;;;10.30;100.00
72612;BME280;60655;52.182;4.474;2024-01-30T05:34:21;102295.78;;;10.28;100.00
72612;BME280;60655;52.182;4.474;2024-01-30T05:36:22;102285.16;;;10.28;100.00
72612;BME280;60655;52.182;4.474;2024-01-30T05:38:23;102292.47;;;10.26;100.00
72612;BME280;60655;52.182;4.474;2024-01-30T05:40:24;102278.66;;;10.31;100.00
72612;BME280;60655;52.182;4.474;2024-01-30T05:42:25;102277.66;;;10.32;100.00
72612;BME280;60655;52.182;4.474;2024-01-30T05:44:26;102272.25;;;10.40;100.00
72612;BME280;60655;52.182;4.474;2024-01-30T05:46:27;102276.50;;;10.34;100.00
72612;BME280;60655;52.182;4.474;2024-01-30T05:48:28;102268.69;;;10.33;100.00
72612;BME280;60655;52.182;4.474;2024-01-30T05:50:29;102281.81;;;10.34;100.00
72612;BME280;60655;52.182;4.474;2024-01-30T05:52:30;102277.56;;;10.40;100.00
72612;BME280;60655;52.182;4.474;2024-01-30T05:54:32;102284.75;;;10.39;100.00
72612;BME280;60655;52.182;4.474;2024-01-30T05:56:32;102283.28;;;10.37;100.00
72612;BME280;60655;52.182;4.474;2024-01-30T05:58:33;102282.97;;;10.32;100.00
72612;BME280;60655;52.182;4.474;2024-01-30T06:00:34;102284.28;;;10.36;100.00
72612;BME280;60655;52.182;4.474;2024-01-30T06:02:35;102284.94;;;10.38;100.00
72612;BME280;60655;52.182;4.474;2024-01-30T06:04:36;102279.63;;;10.38;100.00
72612;BME280;60655;52.182;4.474;2024-01-30T06:06:37;102289.25;;;10.39;100.00
72612;BME280;60655;52.182;4.474;2024-01-30T06:08:38;102294.72;;;10.37;100.00
72612;BME280;60655;52.182;4.474;2024-01-30T06:10:39;102293.97;;;10.29;100.00
72612;BME280;60655;52.182;4.474;2024-01-30T06:12:41;102291.13;;;10.30;100.00
72612;BME280;60655;52.182;4.474;2024-01-30T06:14:41;102291.13;;;10.30;100.00
72612;BME280;60655;52.182;4.474;2024-01-30T06:16:43;102293.25;;;10.35;100.00
72612;BME280;60655;52.182;4.474;2024-01-30T06:18:44;102290.41;;;10.36;100.00
72612;BME280;60655;52.182;4.474;2024-01-30T06:20:44;102291.59;;;10.34;100.00
72612;BME280;60655;52.182;4.474;2024-01-30T06:22:45;102291.78;;;10.32;100.00
72612;BME280;60655;52.182;4.474;2024-01-30T06:24:46;102292.13;;;10.29;100.00
72612;BME280;60655;52.182;4.474;2024-01-30T06:26:49;102295.13;;;10.26;100.00
72612;BME280;60655;52.182;4.474;2024-01-30T06:28:50;102291.13;;;10.30;100.00
72612;BME280;60655;52.182;4.474;2024-01-30T06:30:51;102298.91;;;10.32;100.00
72612;BME280;60655;52.182;4.474;2024-01-30T06:32:51;102296.72;;;10.35;100.00
72612;BME280;60655;52.182;4.474;2024-01-30T06:34:52;102288.47;;;10.30;100.00
72612;BME280;60655;52.182;4.474;2024-01-30T06:36:53;102286.53;;;10.24;100.00
72612;BME280;60655;52.182;4.474;2024-01-30T06:38:54;102287.16;;;10.26;100.00
72612;BME280;60655;52.182;4.474;2024-01-30T06:40:55;102294.78;;;10.29;100.00
72612;BME280;60655;52.182;4.474;2024-01-30T06:42:56;102289.00;;;10.26;100.00
72612;BME280;60655;52.182;4.474;2024-01-30T06:44:57;102296.78;;;10.27;100.00
72612;BME280;60655;52.182;4.474;2024-01-30T06:46:58;102290.81;;;10.25;100.00
72612;BME280;60655;52.182;4.474;2024-01-30T06:48:59;102294.78;;;10.29;100.00
72612;BME280;60655;52.182;4.474;2024-01-30T06:51:00;102293.84;;;10.22;100.00
72612;BME280;60655;52.182;4.474;2024-01-30T06:53:01;102301.94;;;10.29;100.00
72612;BME280;60655;52.182;4.474;2024-01-30T06:55:02;102307.06;;;10.30;100.00
72612;BME280;60655;52.182;4.474;2024-01-30T06:57:03;102304.53;;;10.37;100.00
72612;BME280;60655;52.182;4.474;2024-01-30T06:59:04;102301.69;;;10.38;100.00
72612;BME280;60655;52.182;4.474;2024-01-30T07:01:06;102300.22;;;10.36;100.00
72612;BME280;60655;52.182;4.474;2024-01-30T07:03:07;102302.69;;;10.37;100.00
72612;BME280;60655;52.182;4.474;2024-01-30T07:05:08;102305.44;;;10.44;100.00
72612;BME280;60655;52.182;4.474;2024-01-30T07:07:09;102303.78;;;10.43;100.00
72612;BME280;60655;52.182;4.474;2024-01-30T07:09:13;102306.56;;;10.49;100.00
72612;BME280;60655;52.182;4.474;2024-01-30T07:11:20;102307.09;;;10.45;100.00
72612;BME280;60655;52.182;4.474;2024-01-30T07:13:22;102312.69;;;10.50;100.00
72612;BME280;60655;52.182;4.474;2024-01-30T07:15:23;102313.00;;;10.55;100.00
72612;BME280;60655;52.182;4.474;2024-01-30T07:17:24;102322.91;;;10.61;100.00
72612;BME280;60655;52.182;4.474;2024-01-30T07:19:25;102322.56;;;10.64;100.00
72612;BME280;60655;52.182;4.474;2024-01-30T07:21:26;102326.22;;;10.63;100.00
72612;BME280;60655;52.182;4.474;2024-01-30T07:23:28;102324.03;;;10.67;100.00
72612;BME280;60655;52.182;4.474;2024-01-30T07:25:30;102328.78;;;10.71;100.00
72612;BME280;60655;52.182;4.474;2024-01-30T07:27:31;102332.25;;;10.72;100.00
72612;BME280;60655;52.182;4.474;2024-01-30T07:29:32;102329.72;;;10.78;100.00
72612;BME280;60655;52.182;4.474;2024-01-30T07:31:33;102336.16;;;10.84;100.00
72612;BME280;60655;52.182;4.474;2024-01-30T07:33:34;102339.53;;;10.78;100.00
72612;BME280;60655;52.182;4.474;2024-01-30T07:35:35;102335.31;;;10.83;100.00
72612;BME280;60655;52.182;4.474;2024-01-30T07:37:36;102339.47;;;10.86;100.00
72612;BME280;60655;52.182;4.474;2024-01-30T07:39:37;102339.09;;;10.89;100.00
72612;BME280;60655;52.182;4.474;2024-01-30T07:41:38;102348.25;;;10.87;100.00
72612;BME280;60655;52.182;4.474;2024-01-30T07:43:39;102337.91;;;10.92;100.00
72612;BME280;60655;52.182;4.474;2024-01-30T07:45:40;102337.56;;;10.95;100.00
72612;BME280;60655;52.182;4.474;2024-01-30T07:47:41;102339.09;;;10.89;100.00
72612;BME280;60655;52.182;4.474;2024-01-30T07:49:42;102346.91;;;10.91;100.00
72612;BME280;60655;52.182;4.474;2024-01-30T07:51:43;102353.69;;;10.93;100.00
72612;BME280;60655;52.182;4.474;2024-01-30T07:53:45;102359.25;;;10.98;100.00
72612;BME280;60655;52.182;4.474;2024-01-30T07:55:46;102346.19;;;10.97;100.00
72612;BME280;60655;52.182;4.474;2024-01-30T07:57:47;102352.50;;;10.96;100.00
72612;BME280;60655;52.182;4.474;2024-01-30T07:59:48;102351.66;;;10.95;100.00
72612;BME280;60655;52.182;4.474;2024-01-30T08:01:49;102357.81;;;10.96;100.00
72612;BME280;60655;52.182;4.474;2024-01-30T08:03:50;102362.38;;;11.02;100.00
72612;BME280;60655;52.182;4.474;2024-01-30T08:05:51;102361.75;;;11.00;100.00
72612;BME280;60655;52.182;4.474;2024-01-30T08:07:52;102367.81;;;10.94;100.00
72612;BME280;60655;52.182;4.474;2024-01-30T08:09:53;102368.53;;;10.88;100.00
72612;BME280;60655;52.182;4.474;2024-01-30T08:11:53;102371.94;;;10.96;100.00
72612;BME280;60655;52.182;4.474;2024-01-30T08:13:55;102377.25;;;10.96;100.00
72612;BME280;60655;52.182;4.474;2024-01-30T08:15:56;102377.16;;;10.90;100.00
72612;BME280;60655;52.182;4.474;2024-01-30T08:17:57;102368.44;;;10.96;100.00
72612;BME280;60655;52.182;4.474;2024-01-30T08:19:59;102362.66;;;10.92;100.00
72612;BME280;60655;52.182;4.474;2024-01-30T08:22:00;102377.25;;;10.96;100.00
72612;BME280;60655;52.182;4.474;2024-01-30T08:24:01;102375.97;;;10.92;100.00
72612;BME280;60655;52.182;4.474;2024-01-30T08:26:03;102380.91;;;10.95;100.00
72612;BME280;60655;52.182;4.474;2024-01-30T08:28:05;102376.22;;;10.97;100.00
72612;BME280;60655;52.182;4.474;2024-01-30T08:30:06;102372.13;;;10.95;100.00
72612;BME280;60655;52.182;4.474;2024-01-30T08:32:08;102379.09;;;10.96;100.00
72612;BME280;60655;52.182;4.474;2024-01-30T08:34:08;102371.94;;;10.96;100.00
72612;BME280;60655;52.182;4.474;2024-01-30T08:36:09;102371.72;;;10.98;100.00
72612;BME280;60655;52.182;4.474;2024-01-30T08:38:10;102388.31;;;11.00;100.00
72612;BME280;60655;52.182;4.474;2024-01-30T08:40:13;102385.50;;;11.01;100.00
72612;BME280;60655;52.182;4.474;2024-01-30T08:42:14;102384.66;;;11.01;100.00
72612;BME280;60655;52.182;4.474;2024-01-30T08:44:15;102388.06;;;10.95;100.00
72612;BME280;60655;52.182;4.474;2024-01-30T08:46:19;102392.44;;;10.88;100.00
72612;BME280;60655;52.182;4.474;2024-01-30T08:48:20;102391.63;;;10.87;100.00
72612;BME280;60655;52.182;4.474;2024-01-30T08:50:23;102388.97;;;10.87;100.00
72612;BME280;60655;52.182;4.474;2024-01-30T08:52:24;102388.59;;;10.90;100.00
72612;BME280;60655;52.182;4.474;2024-01-30T08:54:25;102390.44;;;10.90;100.00
72612;BME280;60655;52.182;4.474;2024-01-30T08:56:26;102384.13;;;10.91;100.00
72612;BME280;60655;52.182;4.474;2024-01-30T08:58:26;102375.84;;;10.86;100.00
72612;BME280;60655;52.182;4.474;2024-01-30T09:00:28;102393.56;;;10.93;100.00
72612;BME280;60655;52.182;4.474;2024-01-30T09:02:29;102399.34;;;10.97;100.00
72612;BME280;60655;52.182;4.474;2024-01-30T09:04:30;102398.53;;;10.96;100.00
72612;BME280;60655;52.182;4.474;2024-01-30T09:06:31;102385.78;;;10.92;100.00
72612;BME280;60655;52.182;4.474;2024-01-30T09:08:32;102394.41;;;10.94;100.00
72612;BME280;60655;52.182;4.474;2024-01-30T09:10:33;102382.69;;;10.80;100.00
72612;BME280;60655;52.182;4.474;2024-01-30T09:12:34;102413.91;;;10.86;100.00
72612;BME280;60655;52.182;4.474;2024-01-30T09:14:39;102422.03;;;10.85;100.00
72612;BME280;60655;52.182;4.474;2024-01-30T09:16:40;102416.66;;;10.70;100.00
72612;BME280;60655;52.182;4.474;2024-01-30T09:18:41;102415.66;;;10.71;100.00
72612;BME280;60655;52.182;4.474;2024-01-30T09:20:42;102434.44;;;10.69;100.00
72612;BME280;60655;52.182;4.474;2024-01-30T09:22:43;102443.31;;;10.62;100.00
72612;BME280;60655;52.182;4.474;2024-01-30T09:24:44;102443.25;;;10.47;100.00
72612;BME280;60655;52.182;4.474;2024-01-30T09:26:45;102440.09;;;10.43;100.00
72612;BME280;60655;52.182;4.474;2024-01-30T09:28:46;102429.38;;;10.37;100.00
72612;BME280;60655;52.182;4.474;2024-01-30T09:30:47;102445.75;;;10.40;100.00
72612;BME280;60655;52.182;4.474;2024-01-30T09:32:48;102447.31;;;10.35;100.00
72612;BME280;60655;52.182;4.474;2024-01-30T09:34:49;102437.03;;;10.32;100.00
72612;BME280;60655;52.182;4.474;2024-01-30T09:36:49;102438.25;;;10.21;100.00
72612;BME280;60655;52.182;4.474;2024-01-30T09:38:50;102446.44;;;10.03;100.00
72612;BME280;60655;52.182;4.474;2024-01-30T09:40:54;102450.81;;;9.88;100.00
72612;BME280;60655;52.182;4.474;2024-01-30T09:42:58;102480.69;;;9.82;100.00
72612;BME280;60655;52.182;4.474;2024-01-30T09:45:01;102480.72;;;9.74;100.00
72612;BME280;60655;52.182;4.474;2024-01-30T09:47:04;102473.25;;;9.77;100.00
72612;BME280;60655;52.182;4.474;2024-01-30T09:49:08;102457.34;;;9.77;100.00
72612;BME280;60655;52.182;4.474;2024-01-30T09:51:09;102470.28;;;9.80;100.00
72612;BME280;60655;52.182;4.474;2024-01-30T09:53:13;102466.47;;;9.67;100.00
72612;BME280;60655;52.182;4.474;2024-01-30T09:55:14;102470.31;;;9.64;100.00
72612;BME280;60655;52.182;4.474;2024-01-30T09:57:15;102476.09;;;9.76;100.00
72612;BME280;60655;52.182;4.474;2024-01-30T09:59:16;102472.59;;;9.75;100.00
72612;BME280;60655;52.182;4.474;2024-01-30T10:01:23;102461.34;;;9.73;100.00
72612;BME280;60655;52.182;4.474;2024-01-30T10:03:24;102463.31;;;9.71;100.00
72612;BME280;60655;52.182;4.474;2024-01-30T10:05:31;102461.50;;;9.64;100.00
72612;BME280;60655;52.182;4.474;2024-01-30T10:07:34;102467.47;;;9.66;100.00
72612;BME280;60655;52.182;4.474;2024-01-30T10:09:36;102465.50;;;9.68;100.00
72612;BME280;60655;52.182;4.474;2024-01-30T10:11:37;102456.53;;;9.69;100.00
72612;BME280;60655;52.182;4.474;2024-01-30T10:13:39;102469.13;;;9.67;100.00
72612;BME280;60655;52.182;4.474;2024-01-30T10:15:39;102461.19;;;9.67;100.00
72612;BME280;60655;52.182;4.474;2024-01-30T10:17:41;102480.91;;;9.64;100.00
72612;BME280;60655;52.182;4.474;2024-01-30T10:19:42;102471.13;;;9.65;100.00
72612;BME280;60655;52.182;4.474;2024-01-30T10:21:43;102474.44;;;9.59;100.00
72612;BME280;60655;52.182;4.474;2024-01-30T10:23:44;102478.94;;;9.58;100.00
72612;BME280;60655;52.182;4.474;2024-01-30T10:25:47;102471.84;;;9.51;100.00
72612;BME280;60655;52.182;4.474;2024-01-30T10:27:58;102467.19;;;9.53;100.00
72612;BME280;60655;52.182;4.474;2024-01-30T10:29:59;102465.53;;;9.52;100.00